createdAt,value
2018-01-27T00:01:27.199Z,25.37
2018-01-27T00:03:56.052Z,22.97
2018-01-27T00:06:24.911Z,23.80
2018-01-27T00:08:54.291Z,24.60
2018-01-27T00:11:23.173Z,23.23
2018-01-27T00:13:52.064Z,25.10
2018-01-27T00:16:20.909Z,22.50
2018-01-27T00:18:49.789Z,23.07
2018-01-27T00:21:18.799Z,22.97
2018-01-27T00:23:47.661Z,23.27
2018-01-27T00:26:16.512Z,21.37
2018-01-27T00:28:45.451Z,21.33
2018-01-27T00:31:14.327Z,22.30
2018-01-27T00:33:43.198Z,22.87
2018-01-27T00:36:12.112Z,20.53
2018-01-27T00:38:40.947Z,22.60
2018-01-27T00:41:09.807Z,20.90
2018-01-27T00:43:38.661Z,22.03
2018-01-27T00:46:07.518Z,19.43
2018-01-27T00:48:36.431Z,22.17
2018-01-27T00:51:05.317Z,21.27
2018-01-27T00:53:34.163Z,21.17
2018-01-27T00:56:03.036Z,20.03
2018-01-27T00:58:31.939Z,21.30
2018-01-27T01:01:00.787Z,20.97
2018-01-27T01:03:29.658Z,20.43
2018-01-27T01:05:59.383Z,21.57
2018-01-27T01:08:28.233Z,19.53
2018-01-27T01:10:57.080Z,20.30
2018-01-27T01:13:25.953Z,20.43
2018-01-27T01:15:54.783Z,18.80
2018-01-27T01:18:23.623Z,21.17
2018-01-27T01:20:52.495Z,19.70
2018-01-27T01:23:21.714Z,18.23
2018-01-27T01:25:50.571Z,18.07
2018-01-27T01:28:19.436Z,18.00
2018-01-27T01:30:48.271Z,17.67
2018-01-27T01:33:17.124Z,16.97
2018-01-27T01:35:46.020Z,16.53
2018-01-27T01:38:14.864Z,17.17
2018-01-27T01:40:43.731Z,16.83
2018-01-27T01:43:29.412Z,16.80
2018-01-27T01:45:58.297Z,17.63
2018-01-27T01:48:27.135Z,16.27
2018-01-27T01:50:56.590Z,17.57
2018-01-27T01:53:25.439Z,16.60
2018-01-27T01:55:54.833Z,16.40
2018-01-27T01:58:24.619Z,15.93
2018-01-27T02:00:53.478Z,16.50
2018-01-27T02:03:22.328Z,15.27
2018-01-27T02:05:51.213Z,14.37
2018-01-27T02:08:20.065Z,15.93
2018-01-27T02:10:48.907Z,15.23
2018-01-27T02:13:17.779Z,12.43
2018-01-27T02:15:46.631Z,12.97
2018-01-27T02:18:15.470Z,13.93
2018-01-27T02:20:44.325Z,12.47
2018-01-27T02:23:13.207Z,14.40
2018-01-27T02:25:42.067Z,13.57
2018-01-27T02:28:10.942Z,15.30
2018-01-27T02:30:39.792Z,17.77
2018-01-27T02:33:08.652Z,17.70
2018-01-27T02:35:37.521Z,15.03
2018-01-27T02:38:06.408Z,15.87
2018-01-27T02:40:35.269Z,15.80
2018-01-27T02:43:04.130Z,16.57
2018-01-27T02:45:32.976Z,15.77
2018-01-27T02:48:01.827Z,16.47
2018-01-27T02:50:31.502Z,16.07
2018-01-27T02:53:00.358Z,15.43
2018-01-27T02:55:29.226Z,14.93
2018-01-27T02:57:58.678Z,14.53
2018-01-27T03:00:27.771Z,15.17
2018-01-27T03:02:56.616Z,14.87
2018-01-27T03:05:25.517Z,15.43
2018-01-27T03:07:54.371Z,15.57
2018-01-27T03:10:23.219Z,15.17
2018-01-27T03:12:52.101Z,15.77
2018-01-27T03:15:20.937Z,14.63
2018-01-27T03:17:49.808Z,14.23
2018-01-27T03:20:18.707Z,14.37
2018-01-27T03:22:47.547Z,14.80
2018-01-27T03:25:16.415Z,14.20
2018-01-27T03:27:45.288Z,15.00
2018-01-27T03:30:14.296Z,15.60
2018-01-27T03:32:43.150Z,15.57
2018-01-27T03:35:12.069Z,13.23
2018-01-27T03:37:40.911Z,14.93
2018-01-27T03:40:09.821Z,15.40
2018-01-27T03:42:38.735Z,14.97
2018-01-27T03:45:07.567Z,15.07
2018-01-27T03:47:36.533Z,15.07
2018-01-27T03:50:05.397Z,15.37
2018-01-27T03:52:34.230Z,16.07
2018-01-27T03:55:03.106Z,16.53
2018-01-27T03:57:31.983Z,16.93
2018-01-27T04:00:00.823Z,17.97
2018-01-27T04:02:29.672Z,16.60
2018-01-27T04:04:58.553Z,16.80
2018-01-27T04:07:27.399Z,16.53
2018-01-27T04:09:56.231Z,17.07
2018-01-27T04:12:25.145Z,16.03
2018-01-27T04:14:54.015Z,17.93
2018-01-27T04:17:22.849Z,16.70
2018-01-27T04:19:51.785Z,17.80
2018-01-27T04:22:21.551Z,18.03
2018-01-27T04:24:51.353Z,17.77
2018-01-27T04:27:20.187Z,16.57
2018-01-27T04:29:49.033Z,16.67
2018-01-27T04:32:17.902Z,17.17
2018-01-27T04:34:46.749Z,17.43
2018-01-27T04:37:15.615Z,18.70
2018-01-27T04:39:44.511Z,18.77
2018-01-27T04:42:13.355Z,18.10
2018-01-27T04:44:42.213Z,18.83
2018-01-27T04:47:11.101Z,19.33
2018-01-27T04:49:39.949Z,17.30
2018-01-27T04:52:08.809Z,20.97
2018-01-27T04:54:37.749Z,19.83
2018-01-27T04:57:06.601Z,20.73
2018-01-27T04:59:35.461Z,20.27
2018-01-27T05:02:04.327Z,21.10
2018-01-27T05:04:33.563Z,20.60
2018-01-27T05:07:02.435Z,20.53
2018-01-27T05:09:31.667Z,19.10
2018-01-27T05:12:01.401Z,17.97
2018-01-27T05:14:31.237Z,19.13
2018-01-27T05:17:00.100Z,18.77
2018-01-27T05:19:28.959Z,19.87
2018-01-27T05:21:57.821Z,19.57
2018-01-27T05:24:26.656Z,18.93
2018-01-27T05:26:55.495Z,25.80
2018-01-27T05:29:24.573Z,18.47
2018-01-27T05:31:53.414Z,18.03
2018-01-27T05:34:22.265Z,18.53
2018-01-27T05:36:51.163Z,17.23
2018-01-27T05:39:22.383Z,18.57
2018-01-27T05:41:51.279Z,17.80
2018-01-27T05:44:20.783Z,18.97
2018-01-27T05:46:49.659Z,19.93
2018-01-27T05:49:18.575Z,19.63
2018-01-27T05:51:47.473Z,19.00
2018-01-27T05:54:16.311Z,19.13
2018-01-27T05:56:45.767Z,17.77
2018-01-27T05:59:14.899Z,17.87
2018-01-27T06:01:43.787Z,18.53
2018-01-27T06:04:12.919Z,16.53
2018-01-27T06:06:41.785Z,16.07
2018-01-27T06:09:10.673Z,17.10
2018-01-27T06:11:39.559Z,15.47
2018-01-27T06:14:08.422Z,17.83
2018-01-27T06:16:37.269Z,18.33
2018-01-27T06:19:06.159Z,18.57
2018-01-27T06:21:35.051Z,17.43
2018-01-27T06:24:03.993Z,18.30
2018-01-27T06:26:32.903Z,17.27
2018-01-27T06:29:01.805Z,18.77
2018-01-27T06:31:31.004Z,17.37
2018-01-27T06:33:59.906Z,18.27
2018-01-27T06:36:28.787Z,42.23
2018-01-27T06:38:57.687Z,90.67
2018-01-27T06:41:26.585Z,41.67
2018-01-27T06:43:55.447Z,21.43
2018-01-27T06:46:24.283Z,17.30
2018-01-27T06:48:53.173Z,18.40
2018-01-27T06:51:22.015Z,16.37
2018-01-27T06:53:50.879Z,17.33
2018-01-27T06:56:19.859Z,16.57
2018-01-27T06:58:48.707Z,16.60
2018-01-27T07:01:17.845Z,16.93
2018-01-27T07:03:46.741Z,15.80
2018-01-27T07:06:15.650Z,15.23
2018-01-27T07:08:44.519Z,16.40
2018-01-27T07:11:13.429Z,16.93
2018-01-27T07:13:43.095Z,16.63
2018-01-27T07:16:11.941Z,16.47
2018-01-27T07:18:40.807Z,16.80
2018-01-27T07:21:09.687Z,18.13
2018-01-27T07:23:38.541Z,18.47
2018-01-27T07:26:07.404Z,16.53
2018-01-27T07:28:36.938Z,18.23
2018-01-27T07:31:05.895Z,17.47
2018-01-27T07:33:34.809Z,18.07
2018-01-27T07:36:03.723Z,18.57
2018-01-27T07:38:32.561Z,17.20
2018-01-27T07:41:01.427Z,17.53
2018-01-27T07:43:30.280Z,17.17
2018-01-27T07:45:59.131Z,19.23
2018-01-27T07:48:28.069Z,17.70
2018-01-27T07:50:56.903Z,18.17
2018-01-27T07:53:25.758Z,18.27
2018-01-27T07:55:55.456Z,19.07
2018-01-27T07:58:24.298Z,18.83
2018-01-27T08:00:53.189Z,18.57
2018-01-27T08:03:22.055Z,16.93
2018-01-27T08:05:50.930Z,18.07
2018-01-27T08:08:19.779Z,17.13
2018-01-27T08:10:48.835Z,17.83
2018-01-27T08:13:18.087Z,19.20
2018-01-27T08:15:46.970Z,17.87
2018-01-27T08:18:15.897Z,18.03
2018-01-27T08:20:44.735Z,20.00
2018-01-27T08:23:13.579Z,17.07
2018-01-27T08:25:42.452Z,17.47
2018-01-27T08:28:11.301Z,18.60
2018-01-27T08:30:40.163Z,16.07
2018-01-27T08:33:09.041Z,15.77
2018-01-27T08:35:37.919Z,16.87
2018-01-27T08:38:06.766Z,16.23
2018-01-27T08:40:35.640Z,26.43
2018-01-27T08:43:04.491Z,18.00
2018-01-27T08:45:33.323Z,16.70
2018-01-27T08:48:02.197Z,19.20
2018-01-27T08:50:32.020Z,16.13
2018-01-27T08:53:00.867Z,17.73
2018-01-27T08:55:29.853Z,16.47
2018-01-27T08:57:58.741Z,19.80
2018-01-27T09:00:27.575Z,13.80
2018-01-27T09:02:56.445Z,16.77
2018-01-27T09:05:25.329Z,13.93
2018-01-27T09:07:54.156Z,12.77
2018-01-27T09:10:23.023Z,12.23
2018-01-27T09:12:52.485Z,13.10
2018-01-27T09:15:21.327Z,11.97
2018-01-27T09:17:50.227Z,12.27
2018-01-27T09:20:19.507Z,11.17
2018-01-27T09:22:48.335Z,18.87
2018-01-27T09:25:17.247Z,16.27
2018-01-27T09:27:46.106Z,17.07
2018-01-27T09:30:14.947Z,13.63
2018-01-27T09:32:43.849Z,20.27
2018-01-27T09:35:12.734Z,11.33
2018-01-27T09:37:41.581Z,11.20
2018-01-27T09:40:11.084Z,11.40
2018-01-27T09:42:40.812Z,12.20
2018-01-27T09:45:10.307Z,11.53
2018-01-27T09:47:39.251Z,11.13
2018-01-27T09:50:08.111Z,10.67
2018-01-27T09:52:37.717Z,10.30
2018-01-27T09:55:06.673Z,12.23
2018-01-27T09:57:35.542Z,11.87
2018-01-27T10:00:04.392Z,12.57
2018-01-27T10:02:33.293Z,10.67
2018-01-27T10:05:02.170Z,13.13
2018-01-27T10:07:31.009Z,11.87
2018-01-27T10:09:59.906Z,12.97
2018-01-27T10:12:28.795Z,16.10
2018-01-27T10:14:57.643Z,11.80
2018-01-27T10:17:26.551Z,11.13
2018-01-27T10:19:55.419Z,11.73
2018-01-27T10:22:24.282Z,13.50
2018-01-27T10:24:53.139Z,11.43
2018-01-27T10:27:22.692Z,24.57
2018-01-27T10:29:51.592Z,11.40
2018-01-27T10:32:20.951Z,12.80
2018-01-27T10:34:49.827Z,10.90
2018-01-27T10:37:18.811Z,9.93
2018-01-27T10:39:47.806Z,9.93
2018-01-27T10:42:16.647Z,9.77
2018-01-27T10:44:45.489Z,10.00
2018-01-27T10:47:14.383Z,10.23
2018-01-27T10:49:43.248Z,9.83
2018-01-27T10:52:12.234Z,11.03
2018-01-27T10:54:41.153Z,10.93
2018-01-27T10:57:09.995Z,11.50
2018-01-27T10:59:38.853Z,11.63
2018-01-27T11:02:07.818Z,10.93
2018-01-27T11:04:37.111Z,13.27
2018-01-27T11:07:05.957Z,13.13
2018-01-27T11:09:34.841Z,11.27
2018-01-27T11:12:03.709Z,10.87
2018-01-27T11:14:33.495Z,12.43
2018-01-27T11:17:02.377Z,13.10
2018-01-27T11:19:31.260Z,10.87
2018-01-27T11:22:00.110Z,11.43
2018-01-27T11:24:29.003Z,10.60
2018-01-27T11:26:57.882Z,12.93
2018-01-27T11:29:26.820Z,11.97
2018-01-27T11:31:55.811Z,10.90
2018-01-27T11:34:24.662Z,12.00
2018-01-27T11:36:53.575Z,11.10
2018-01-27T11:39:22.473Z,11.37
2018-01-27T11:41:51.325Z,11.70
2018-01-27T11:44:20.339Z,11.50
2018-01-27T11:46:49.235Z,11.47
2018-01-27T11:49:18.096Z,10.90
2018-01-27T11:51:47.080Z,11.50
2018-01-27T11:54:15.976Z,10.37
2018-01-27T11:56:45.380Z,11.53
2018-01-27T11:59:15.619Z,10.80
2018-01-27T12:01:48.892Z,10.07
2018-01-27T12:04:19.334Z,11.90
2018-01-27T12:06:48.207Z,11.83
2018-01-27T12:09:18.600Z,11.63
2018-01-27T12:11:47.465Z,12.90
2018-01-27T12:14:16.969Z,11.83
2018-01-27T12:16:45.831Z,11.00
2018-01-27T12:19:14.816Z,11.53
2018-01-27T12:21:43.707Z,10.97
2018-01-27T12:24:13.771Z,11.80
2018-01-27T12:26:42.610Z,12.30
2018-01-27T12:29:11.635Z,11.77
2018-01-27T12:31:40.513Z,12.33
2018-01-27T12:34:09.405Z,14.77
2018-01-27T12:36:38.339Z,14.80
2018-01-27T12:39:08.589Z,11.90
2018-01-27T12:41:37.534Z,11.20
2018-01-27T12:44:06.409Z,10.90
2018-01-27T12:46:35.275Z,11.43
2018-01-27T12:49:04.120Z,10.43
2018-01-27T12:51:32.978Z,11.93
2018-01-27T12:54:01.837Z,17.60
2018-01-27T12:56:30.755Z,13.00
2018-01-27T12:58:59.637Z,12.20
2018-01-27T13:01:28.543Z,12.07
2018-01-27T13:03:57.387Z,11.13
2018-01-27T13:06:26.259Z,11.50
2018-01-27T13:08:55.111Z,13.93
2018-01-27T13:11:23.959Z,12.17
2018-01-27T13:13:52.847Z,10.73
2018-01-27T13:16:21.709Z,12.83
2018-01-27T13:18:51.068Z,15.47
2018-01-27T13:21:19.958Z,17.73
2018-01-27T13:23:49.420Z,12.20
2018-01-27T13:26:19.535Z,12.10
2018-01-27T13:28:48.417Z,12.50
2018-01-27T13:31:17.597Z,11.60
2018-01-27T13:33:46.438Z,13.77
2018-01-27T13:36:15.296Z,13.63
2018-01-27T13:38:44.136Z,14.03
2018-01-27T13:41:13.001Z,15.70
2018-01-27T13:43:41.902Z,14.37
2018-01-27T13:46:10.778Z,14.60
2018-01-27T13:48:39.749Z,15.20
2018-01-27T13:51:08.633Z,15.03
2018-01-27T13:53:37.480Z,15.57
2018-01-27T13:56:06.336Z,13.63
2018-01-27T13:58:35.261Z,15.10
2018-01-27T14:01:04.134Z,14.67
2018-01-27T14:03:32.983Z,12.83
2018-01-27T14:06:01.869Z,13.83
2018-01-27T14:08:31.649Z,12.53
2018-01-27T14:11:00.496Z,13.83
2018-01-27T14:13:29.419Z,13.40
2018-01-27T14:15:58.269Z,12.37
2018-01-27T14:18:27.109Z,14.23
2018-01-27T14:20:55.973Z,12.27
2018-01-27T14:23:24.811Z,11.13
2018-01-27T14:25:53.643Z,11.30
2018-01-27T14:28:22.516Z,10.17
2018-01-27T14:30:51.433Z,9.93
2018-01-27T14:33:21.645Z,10.37
2018-01-27T14:35:50.553Z,10.63
2018-01-27T14:38:19.603Z,9.40
2018-01-27T14:40:48.441Z,9.80
2018-01-27T14:43:17.307Z,9.30
2018-01-27T14:45:46.154Z,8.40
2018-01-27T14:48:14.991Z,10.03
2018-01-27T14:50:43.901Z,9.97
2018-01-27T14:53:13.697Z,10.53
2018-01-27T14:55:42.566Z,10.13
2018-01-27T14:58:12.003Z,10.40
2018-01-27T15:00:42.169Z,10.97
2018-01-27T15:03:11.159Z,9.57
2018-01-27T15:05:40.003Z,11.90
2018-01-27T15:08:08.916Z,11.53
2018-01-27T15:10:37.831Z,11.30
2018-01-27T15:13:06.686Z,11.30
2018-01-27T15:15:36.254Z,11.23
2018-01-27T15:18:05.127Z,12.20
2018-01-27T15:20:35.225Z,10.03
2018-01-27T15:23:04.070Z,11.20
2018-01-27T15:25:32.954Z,12.20
2018-01-27T15:28:02.622Z,13.07
2018-01-27T15:30:31.711Z,11.50
2018-01-27T15:33:00.609Z,12.73
2018-01-27T15:35:29.515Z,12.43
2018-01-27T15:37:58.391Z,13.10
2018-01-27T15:40:27.281Z,13.83
2018-01-27T15:42:56.249Z,13.20
2018-01-27T15:45:25.101Z,11.93
2018-01-27T15:47:53.971Z,14.03
2018-01-27T15:50:22.815Z,13.83
2018-01-27T15:52:51.680Z,13.03
2018-01-27T15:55:20.563Z,12.60
2018-01-27T15:57:50.095Z,12.97
2018-01-27T16:00:19.849Z,13.67
2018-01-27T16:02:48.718Z,12.63
2018-01-27T16:05:17.634Z,12.33
2018-01-27T16:07:46.554Z,13.30
2018-01-27T16:10:15.414Z,10.27
2018-01-27T16:12:44.281Z,12.63
2018-01-27T16:15:13.165Z,11.50
2018-01-27T16:17:42.008Z,12.13
2018-01-27T16:20:10.896Z,11.73
2018-01-27T16:22:39.845Z,11.83
2018-01-27T16:25:08.967Z,13.30
2018-01-27T16:27:37.856Z,11.23
2018-01-27T16:30:06.763Z,12.17
2018-01-27T16:32:35.635Z,12.60
2018-01-27T16:35:04.545Z,11.00
2018-01-27T16:37:33.406Z,11.13
2018-01-27T16:40:02.301Z,11.13
2018-01-27T16:42:31.147Z,10.13
2018-01-27T16:45:00.079Z,11.80
2018-01-27T16:47:29.783Z,12.47
2018-01-27T16:49:58.655Z,10.97
2018-01-27T16:52:28.689Z,10.87
2018-01-27T16:54:57.575Z,10.17
2018-01-27T16:57:26.420Z,11.93
2018-01-27T16:59:55.337Z,11.30
2018-01-27T17:02:24.193Z,9.33
2018-01-27T17:04:53.098Z,10.50
2018-01-27T17:07:22.911Z,11.27
2018-01-27T17:09:51.825Z,10.47
2018-01-27T17:12:22.277Z,10.37
2018-01-27T17:14:51.397Z,10.80
2018-01-27T17:17:20.274Z,11.33
2018-01-27T17:19:49.419Z,12.30
2018-01-27T17:22:18.295Z,12.23
2018-01-27T17:24:47.141Z,11.27
2018-01-27T17:27:15.999Z,10.70
2018-01-27T17:29:44.913Z,10.77
2018-01-27T17:32:14.227Z,11.07
2018-01-27T17:34:43.069Z,12.87
2018-01-27T17:37:11.993Z,9.17
2018-01-27T17:39:40.913Z,11.80
2018-01-27T17:42:09.812Z,13.70
2018-01-27T17:44:38.689Z,9.93
2018-01-27T17:47:07.540Z,12.37
2018-01-27T17:49:36.399Z,12.83
2018-01-27T17:52:05.312Z,8.03
2018-01-27T17:54:34.759Z,10.47
2018-01-27T17:57:03.659Z,15.43
2018-01-27T17:59:34.173Z,9.50
2018-01-27T18:02:03.025Z,7.80
2018-01-27T18:04:32.218Z,8.47
2018-01-27T18:07:01.117Z,7.90
2018-01-27T18:09:29.975Z,7.33
2018-01-27T18:11:58.927Z,8.57
2018-01-27T18:14:27.791Z,7.53
2018-01-27T18:16:56.631Z,8.20
2018-01-27T18:19:25.553Z,8.27
2018-01-27T18:21:54.395Z,8.90
2018-01-27T18:24:23.363Z,6.13
2018-01-27T18:26:52.573Z,8.87
2018-01-27T18:29:21.968Z,6.57
2018-01-27T18:31:50.881Z,8.03
2018-01-27T18:34:19.762Z,6.70
2018-01-27T18:36:48.607Z,8.50
2018-01-27T18:39:17.481Z,7.87
2018-01-27T18:41:46.329Z,5.80
2018-01-27T18:44:15.945Z,7.87
2018-01-27T18:46:44.796Z,7.80
2018-01-27T18:49:13.728Z,8.70
2018-01-27T18:51:42.615Z,8.80
2018-01-27T18:54:11.543Z,7.93
2018-01-27T18:56:40.431Z,13.00
2018-01-27T18:59:09.310Z,13.47
2018-01-27T19:01:39.275Z,9.00
2018-01-27T19:04:08.365Z,8.30
2018-01-27T19:06:38.079Z,8.53
2018-01-27T19:09:06.947Z,8.77
2018-01-27T19:11:35.847Z,7.93
2018-01-27T19:14:04.715Z,7.90
2018-01-27T19:16:34.159Z,7.03
2018-01-27T19:19:03.054Z,6.83
2018-01-27T19:21:31.941Z,7.87
2018-01-27T19:24:00.775Z,8.13
2018-01-27T19:26:29.678Z,8.23
2018-01-27T19:28:58.652Z,10.67
2018-01-27T19:31:28.372Z,7.70
2018-01-27T19:33:57.233Z,7.07
2018-01-27T19:36:26.085Z,7.60
2018-01-27T19:38:56.597Z,6.33
2018-01-27T19:41:26.272Z,8.43
2018-01-27T19:43:55.147Z,7.00
2018-01-27T19:46:24.632Z,7.87
2018-01-27T19:48:53.917Z,8.40
2018-01-27T19:51:23.169Z,8.80
2018-01-27T19:53:54.708Z,8.30
2018-01-27T19:56:24.195Z,8.13
2018-01-27T19:58:53.102Z,6.40
2018-01-27T20:01:24.701Z,7.63
2018-01-27T20:03:54.378Z,8.27
2018-01-27T20:06:23.240Z,8.17
2018-01-27T20:08:52.823Z,8.47
2018-01-27T20:11:22.693Z,7.80
2018-01-27T20:13:51.549Z,7.87
2018-01-27T20:16:20.457Z,7.43
2018-01-27T20:18:49.311Z,7.33
2018-01-27T20:21:19.873Z,7.33
2018-01-27T20:23:49.076Z,7.13
2018-01-27T20:26:18.022Z,7.40
2018-01-27T20:28:46.883Z,7.83
2018-01-27T20:31:15.773Z,7.27
2018-01-27T20:33:44.659Z,8.17
2018-01-27T20:36:13.499Z,7.30
2018-01-27T20:38:42.384Z,6.33
2018-01-27T20:41:11.525Z,7.70
2018-01-27T20:43:40.411Z,7.73
2018-01-27T20:46:09.321Z,8.57
2018-01-27T20:48:38.162Z,9.43
2018-01-27T20:51:07.007Z,11.33
2018-01-27T20:53:35.879Z,8.23
2018-01-27T20:56:05.720Z,7.87
2018-01-27T20:58:34.577Z,8.40
2018-01-27T21:01:03.481Z,8.23
2018-01-27T21:03:32.341Z,8.30
2018-01-27T21:06:01.995Z,8.20
2018-01-27T21:08:30.921Z,8.63
2018-01-27T21:10:59.806Z,9.67
2018-01-27T21:13:28.646Z,9.10
2018-01-27T21:15:57.610Z,9.30
2018-01-27T21:18:26.449Z,8.67
2018-01-27T21:20:55.276Z,9.93
2018-01-27T21:23:24.372Z,7.90
2018-01-27T21:25:53.446Z,9.10
2018-01-27T21:28:22.322Z,10.07
2018-01-27T21:30:51.511Z,10.30
2018-01-27T21:33:21.442Z,10.87
2018-01-27T21:35:50.375Z,10.47
2018-01-27T21:38:19.239Z,10.10
2018-01-27T21:40:48.891Z,10.20
2018-01-27T21:43:18.572Z,11.20
2018-01-27T21:45:47.448Z,12.67
2018-01-27T21:48:16.286Z,12.10
2018-01-27T21:50:45.119Z,11.83
2018-01-27T21:53:13.982Z,12.17
2018-01-27T21:55:42.831Z,10.23
2018-01-27T21:58:11.714Z,11.70
2018-01-27T22:00:40.573Z,11.13
2018-01-27T22:03:09.435Z,12.37
2018-01-27T22:05:39.210Z,11.87
2018-01-27T22:08:09.049Z,11.83
2018-01-27T22:10:37.985Z,13.60
2018-01-27T22:13:06.837Z,11.80
2018-01-27T22:15:36.312Z,13.00
2018-01-27T22:18:05.228Z,12.07
2018-01-27T22:20:34.465Z,11.60
2018-01-27T22:23:03.393Z,11.27
2018-01-27T22:25:32.253Z,13.60
2018-01-27T22:28:01.129Z,13.20
2018-01-27T22:30:30.737Z,8.63
2018-01-27T22:33:00.431Z,12.40
2018-01-27T22:35:29.283Z,13.10
2018-01-27T22:37:58.142Z,12.10
2018-01-27T22:40:27.115Z,13.50
2018-01-27T22:42:55.993Z,14.40
2018-01-27T22:45:24.870Z,12.90
2018-01-27T22:47:54.314Z,13.50
2018-01-27T22:50:23.183Z,13.63
2018-01-27T22:52:52.035Z,12.40
2018-01-27T22:55:20.924Z,12.43
2018-01-27T22:57:49.806Z,12.07
2018-01-27T23:00:18.672Z,11.90
2018-01-27T23:02:47.520Z,13.40
2018-01-27T23:05:16.380Z,12.37
2018-01-27T23:07:45.236Z,11.70
2018-01-27T23:10:14.081Z,11.93
2018-01-27T23:12:42.931Z,13.30
2018-01-27T23:15:11.829Z,12.93
2018-01-27T23:17:40.683Z,10.67
2018-01-27T23:20:09.577Z,11.90
2018-01-27T23:22:38.433Z,10.50
2018-01-27T23:25:07.278Z,12.60
2018-01-27T23:27:36.477Z,12.07
2018-01-27T23:30:06.234Z,12.73
2018-01-27T23:32:35.097Z,11.77
2018-01-27T23:35:03.989Z,11.80
2018-01-27T23:37:32.949Z,11.73
2018-01-27T23:40:02.503Z,10.87
2018-01-27T23:42:31.390Z,11.17
2018-01-27T23:45:00.240Z,11.30
2018-01-27T23:47:29.147Z,12.07
2018-01-27T23:49:57.986Z,11.77
2018-01-27T23:52:26.842Z,11.37
2018-01-27T23:54:56.560Z,11.17
2018-01-27T23:57:25.417Z,10.53
2018-01-27T23:59:54.259Z,11.37
